Time;durP1;ratioP1;P1;durP2;ratioP2;P2;SDS_P1;SDS_P2;PMS_P1;PMS_P2;Temp;Humidity;BMP_temperature;BMP_pressure;BME280_temperature;BME280_humidity;BME280_pressure;Samples;Min_cycle;Max_cycle;Signal;HPM_P1;HPM_P2
2022/07/13 00:00:27;;;;;;;15.23;14.32;;;16.60;99.90;;;;;;5077551;28;20112;-80
2022/07/13 00:02:54;;;;;;;14.90;14.20;;;16.60;99.90;;;;;;5064620;28;20120;-80
2022/07/13 00:05:21;;;;;;;14.50;13.77;;;16.70;99.90;;;;;;5069201;28;20047;-79
2022/07/13 00:07:48;;;;;;;14.07;13.27;;;16.70;99.90;;;;;;5071660;28;20047;-79
2022/07/13 00:10:15;;;;;;;14.82;14.05;;;16.70;99.90;;;;;;5060966;28;20039;-79
2022/07/13 00:12:41;;;;;;;15.40;14.43;;;16.80;99.90;;;;;;5067125;28;20051;-79
2022/07/13 00:15:09;;;;;;;15.80;15.00;;;16.80;99.90;;;;;;5066941;28;20104;-79
2022/07/13 00:17:37;;;;;;;15.40;14.50;;;16.80;99.90;;;;;;5048736;28;20155;-79
2022/07/13 00:20:04;;;;;;;15.50;14.70;;;16.80;99.90;;;;;;5076990;28;20043;-80
2022/07/13 00:22:31;;;;;;;15.82;14.93;;;16.80;99.90;;;;;;5071350;28;20052;-80
2022/07/13 00:24:58;;;;;;;16.17;15.38;;;16.90;99.90;;;;;;5060963;28;20036;-78
2022/07/13 00:27:24;;;;;;;15.23;14.32;;;17.00;99.90;;;;;;5062510;28;20044;-79
2022/07/13 00:29:51;;;;;;;15.25;14.45;;;17.10;99.90;;;;;;5092604;28;20059;-79
2022/07/13 00:32:18;;;;;;;14.75;14.00;;;17.10;99.90;;;;;;5077413;28;20055;-79
2022/07/13 00:34:45;;;;;;;14.35;13.55;;;17.00;99.90;;;;;;5061845;28;20059;-79
2022/07/13 00:37:12;;;;;;;14.68;13.77;;;16.80;99.90;;;;;;5077966;28;20089;-80
2022/07/13 00:39:42;;;;;;;14.10;13.30;;;16.80;99.90;;;;;;5082008;28;20044;-79
2022/07/13 00:42:09;;;;;;;14.57;13.73;;;16.70;99.90;;;;;;5073759;28;20046;-79
2022/07/13 00:44:39;;;;;;;16.02;14.95;;;16.70;99.90;;;;;;5077602;28;20124;-80
2022/07/13 00:47:06;;;;;;;15.80;14.90;;;16.90;99.90;;;;;;5095625;28;20067;-79
2022/07/13 00:49:33;;;;;;;16.95;15.88;;;17.00;99.90;;;;;;5073977;28;20058;-80
2022/07/13 00:51:59;;;;;;;16.05;15.23;;;16.90;99.90;;;;;;5076483;28;20526;-79
2022/07/13 00:54:29;;;;;;;15.88;14.88;;;16.90;99.90;;;;;;5076853;28;20133;-80
2022/07/13 00:56:58;;;;;;;15.80;14.90;;;17.00;99.90;;;;;;5059020;28;20487;-79
2022/07/13 00:59:25;;;;;;;15.50;14.57;;;17.00;99.90;;;;;;5072309;28;20705;-79
2022/07/13 01:01:53;;;;;;;16.05;15.05;;;16.90;99.90;;;;;;5074255;28;20048;-79
2022/07/13 01:04:23;;;;;;;16.30;15.40;;;16.90;99.90;;;;;;5073953;28;20048;-78
2022/07/13 01:06:54;;;;;;;15.77;14.88;;;17.00;99.90;;;;;;5057825;28;20048;-79
2022/07/13 01:09:25;;;;;;;15.05;14.35;;;17.10;99.90;;;;;;5059655;28;20105;-79
2022/07/13 01:11:53;;;;;;;15.30;14.48;;;17.10;99.90;;;;;;5072180;28;20066;-79
2022/07/13 01:14:21;;;;;;;15.07;14.32;;;17.10;99.90;;;;;;5051477;28;20032;-79
2022/07/13 01:16:48;;;;;;;15.60;14.80;;;17.10;99.90;;;;;;5075856;28;20044;-79
2022/07/13 01:19:16;;;;;;;14.85;14.15;;;17.10;99.90;;;;;;5075916;28;20052;-80
2022/07/13 01:21:48;;;;;;;16.17;15.13;;;17.20;99.90;;;;;;5070561;28;20074;-79
2022/07/13 01:24:16;;;;;;;16.27;15.15;;;17.20;99.90;;;;;;5061381;28;20196;-78
2022/07/13 01:26:43;;;;;;;15.07;14.32;;;17.30;99.90;;;;;;5064518;28;20300;-78
2022/07/13 01:29:10;;;;;;;15.05;14.25;;;17.20;99.90;;;;;;5091949;28;20040;-79
2022/07/13 01:31:38;;;;;;;15.65;14.52;;;17.20;99.90;;;;;;5051104;28;20188;-78
2022/07/13 01:34:07;;;;;;;16.15;15.05;;;17.30;99.90;;;;;;5086001;28;20043;-80
2022/07/13 01:36:38;;;;;;;16.00;15.20;;;17.30;99.90;;;;;;5067850;28;20117;-79
2022/07/13 01:39:05;;;;;;;16.00;15.20;;;17.40;99.90;;;;;;5066110;28;20044;-78
2022/07/13 01:41:33;;;;;;;16.38;15.50;;;17.40;99.90;;;;;;5069142;28;20056;-79
2022/07/13 01:44:00;;;;;;;16.80;16.00;;;17.40;99.90;;;;;;5066724;28;20094;-79
2022/07/13 01:46:28;;;;;;;16.52;15.52;;;17.40;99.90;;;;;;5065363;28;20096;-78
2022/07/13 01:48:58;;;;;;;16.52;15.73;;;17.40;99.90;;;;;;5059901;28;20046;-79
2022/07/13 01:51:24;;;;;;;16.85;15.95;;;17.40;99.90;;;;;;5062082;28;20059;-79
2022/07/13 01:53:51;;;;;;;16.60;15.68;;;17.40;99.90;;;;;;5065091;28;20101;-79
2022/07/13 01:56:19;;;;;;;16.38;15.43;;;17.50;99.90;;;;;;5075708;28;20046;-80
2022/07/13 01:58:47;;;;;;;16.17;15.30;;;17.40;99.90;;;;;;5067260;28;20059;-79
2022/07/13 02:01:14;;;;;;;16.42;15.50;;;17.60;99.90;;;;;;5065038;28;20486;-79
2022/07/13 02:03:42;;;;;;;16.92;15.98;;;17.50;99.90;;;;;;5077758;28;20048;-80
2022/07/13 02:06:10;;;;;;;16.52;15.63;;;17.50;99.90;;;;;;5071562;28;20121;-79
2022/07/13 02:08:40;;;;;;;16.00;15.20;;;17.40;99.90;;;;;;5059712;28;20061;-80
2022/07/13 02:11:15;;;;;;;16.50;15.60;;;17.40;99.90;;;;;;5075619;28;20879;-79
2022/07/13 02:13:45;;;;;;;16.40;15.40;;;17.40;99.90;;;;;;5072918;28;20044;-79
2022/07/13 02:16:15;;;;;;;17.35;16.02;;;17.40;99.90;;;;;;5069766;28;20044;-79
2022/07/13 02:18:45;;;;;;;16.10;15.20;;;17.40;99.90;;;;;;5059860;28;20056;-79
2022/07/13 02:21:12;;;;;;;16.10;15.20;;;17.50;99.90;;;;;;5060510;28;20103;-78
2022/07/13 02:23:41;;;;;;;16.30;15.38;;;17.60;99.90;;;;;;5059934;28;20051;-80
2022/07/13 02:26:08;;;;;;;15.77;14.73;;;17.50;99.90;;;;;;5071033;28;20055;-79
2022/07/13 02:28:38;;;;;;;15.50;14.30;;;17.40;99.90;;;;;;5064544;28;20115;-79
2022/07/13 02:31:05;;;;;;;13.73;12.82;;;17.30;99.90;;;;;;5088215;28;20729;-79
2022/07/13 02:33:32;;;;;;;13.77;12.88;;;17.20;99.90;;;;;;5070460;28;20044;-80
2022/07/13 02:35:58;;;;;;;14.35;13.45;;;17.20;99.90;;;;;;5057834;28;20036;-80
2022/07/13 02:38:25;;;;;;;14.45;13.75;;;17.10;99.90;;;;;;5069107;28;20286;-80
2022/07/13 02:40:53;;;;;;;13.75;12.77;;;17.20;99.90;;;;;;5066647;28;20135;-79
2022/07/13 02:43:20;;;;;;;13.23;12.52;;;17.20;99.90;;;;;;5059178;28;20093;-80
2022/07/13 02:45:46;;;;;;;13.43;12.50;;;17.10;99.90;;;;;;5066501;28;20048;-80
2022/07/13 02:48:13;;;;;;;12.88;12.18;;;17.10;99.90;;;;;;5063878;28;20086;-80
2022/07/13 02:50:40;;;;;;;14.48;13.55;;;17.00;99.90;;;;;;5071286;28;20047;-79
2022/07/13 02:53:08;;;;;;;13.27;12.27;;;17.00;99.90;;;;;;5075164;28;20170;-80
2022/07/13 02:55:36;;;;;;;13.23;12.52;;;17.10;99.90;;;;;;5070333;28;20117;-80
2022/07/13 02:58:02;;;;;;;12.40;11.70;;;17.10;99.90;;;;;;5071538;28;20044;-79
2022/07/13 03:00:29;;;;;;;12.65;11.85;;;17.00;99.90;;;;;;5058991;28;20131;-79
2022/07/13 03:02:57;;;;;;;12.57;11.60;;;17.00;99.90;;;;;;5056138;28;20075;-79
2022/07/13 03:05:24;;;;;;;10.73;10.20;;;17.10;99.90;;;;;;5061340;28;20079;-80
2022/07/13 03:07:51;;;;;;;11.90;11.20;;;17.00;99.90;;;;;;5067582;28;20490;-80
2022/07/13 03:10:22;;;;;;;11.90;10.90;;;17.00;99.90;;;;;;5068564;28;20036;-80
2022/07/13 03:12:51;;;;;;;11.55;10.75;;;16.90;99.90;;;;;;5064939;28;20032;-80
2022/07/13 03:15:19;;;;;;;13.43;12.63;;;16.90;99.90;;;;;;5064011;28;20056;-80
2022/07/13 03:17:46;;;;;;;12.85;11.75;;;17.00;99.90;;;;;;5066682;28;20105;-79
2022/07/13 03:20:14;;;;;;;12.68;11.68;;;17.00;99.90;;;;;;5073250;28;20063;-80
2022/07/13 03:22:41;;;;;;;11.65;11.02;;;17.20;99.90;;;;;;5055008;28;20056;-78
2022/07/13 03:25:08;;;;;;;12.93;12.05;;;17.10;99.90;;;;;;5072365;28;20349;-80
2022/07/13 03:27:35;;;;;;;14.00;13.20;;;17.10;99.90;;;;;;5064950;28;20036;-79
2022/07/13 03:30:02;;;;;;;15.68;14.88;;;17.10;99.90;;;;;;5082289;28;20048;-79
2022/07/13 03:32:31;;;;;;;15.27;14.27;;;17.20;99.90;;;;;;5063472;28;20205;-79
2022/07/13 03:34:58;;;;;;;15.13;14.23;;;17.30;99.90;;;;;;5064368;28;20043;-79
2022/07/13 03:37:26;;;;;;;16.15;15.20;;;17.40;99.90;;;;;;5047572;28;20048;-79
2022/07/13 03:39:54;;;;;;;18.90;17.48;;;17.40;99.90;;;;;;5067576;28;20332;-79
2022/07/13 03:42:22;;;;;;;16.20;15.30;;;17.40;99.90;;;;;;5068488;28;20043;-79
2022/07/13 03:44:49;;;;;;;15.88;14.90;;;17.70;99.90;;;;;;5072165;28;20079;-79
2022/07/13 03:47:17;;;;;;;18.15;16.80;;;17.70;99.90;;;;;;5070225;28;20044;-78
2022/07/13 03:49:44;;;;;;;17.70;16.35;;;17.70;99.90;;;;;;5065658;28;20150;-79
2022/07/13 03:52:11;;;;;;;17.50;16.50;;;17.70;99.90;;;;;;5067528;28;20036;-79
2022/07/13 03:54:38;;;;;;;17.95;16.67;;;17.70;99.90;;;;;;5059594;28;20044;-81
2022/07/13 03:57:04;;;;;;;18.20;16.95;;;17.70;99.90;;;;;;5066183;28;20036;-78
2022/07/13 03:59:34;;;;;;;20.60;19.23;;;17.70;99.90;;;;;;5054595;28;20134;-80
2022/07/13 04:02:00;;;;;;;19.67;18.58;;;17.80;99.90;;;;;;5053312;28;20048;-79
2022/07/13 04:04:27;;;;;;;21.10;19.55;;;17.90;99.90;;;;;;5059631;28;20480;-76
2022/07/13 04:06:57;;;;;;;20.38;19.17;;;18.00;99.90;;;;;;5066266;28;20150;-79
2022/07/13 04:09:24;;;;;;;19.33;18.23;;;18.00;99.90;;;;;;5068829;28;20676;-79
2022/07/13 04:11:51;;;;;;;19.02;18.00;;;18.00;99.90;;;;;;5062104;28;20031;-79
2022/07/13 04:14:19;;;;;;;19.42;18.20;;;18.10;99.90;;;;;;5055657;28;20763;-79
2022/07/13 04:16:46;;;;;;;18.92;17.83;;;18.10;99.90;;;;;;5062589;28;20067;-79
2022/07/13 04:19:14;;;;;;;18.60;17.60;;;18.20;99.90;;;;;;5061491;28;20040;-79
2022/07/13 04:21:40;;;;;;;18.38;17.05;;;18.10;99.90;;;;;;5063653;28;20758;-79
2022/07/13 04:24:10;;;;;;;18.48;17.38;;;18.00;99.90;;;;;;5069696;28;20158;-79
2022/07/13 04:26:36;;;;;;;19.52;18.50;;;18.20;99.90;;;;;;5062152;28;20047;-78
2022/07/13 04:29:03;;;;;;;19.83;18.80;;;18.20;99.90;;;;;;5084704;28;20044;-79
2022/07/13 04:31:30;;;;;;;19.48;17.67;;;18.10;99.90;;;;;;5059940;28;20500;-79
2022/07/13 04:33:58;;;;;;;18.00;16.80;;;18.20;99.90;;;;;;5071278;28;20044;-79
2022/07/13 04:36:25;;;;;;;17.70;16.80;;;18.10;99.90;;;;;;5069304;28;20046;-78
2022/07/13 04:38:52;;;;;;;17.85;16.55;;;18.00;99.90;;;;;;5075569;28;20043;-79
2022/07/13 04:41:19;;;;;;;17.65;16.63;;;18.10;99.90;;;;;;5072085;28;20272;-79
2022/07/13 04:43:46;;;;;;;17.65;16.55;;;18.10;99.90;;;;;;5070313;28;20070;-79
2022/07/13 04:46:15;;;;;;;16.88;15.95;;;18.30;99.90;;;;;;5064305;28;20036;-79
2022/07/13 04:48:44;;;;;;;17.15;16.25;;;18.40;99.90;;;;;;5078107;28;20036;-80
2022/07/13 04:51:11;;;;;;;17.30;16.17;;;18.30;99.90;;;;;;5070026;28;20067;-79
2022/07/13 04:53:40;;;;;;;17.23;16.23;;;18.30;99.90;;;;;;5063535;28;20066;-79
2022/07/13 04:56:10;;;;;;;17.02;16.00;;;18.30;99.90;;;;;;5070007;28;20059;-79
2022/07/13 04:58:38;;;;;;;17.83;16.45;;;18.30;99.90;;;;;;5061442;28;21278;-77
2022/07/13 05:01:06;;;;;;;17.25;16.35;;;18.30;99.90;;;;;;5066184;28;20044;-79
2022/07/13 05:03:52;;;;;;;18.30;17.35;;;18.20;99.90;;;;;;5066876;28;20048;-77
2022/07/13 05:06:20;;;;;;;18.48;17.48;;;18.20;99.90;;;;;;5063248;28;20040;-79
2022/07/13 05:08:47;;;;;;;17.20;16.23;;;18.30;99.90;;;;;;5058249;28;20082;-77
2022/07/13 05:11:14;;;;;;;18.02;16.98;;;18.50;99.90;;;;;;5059070;28;20456;-78
2022/07/13 05:13:42;;;;;;;17.13;16.13;;;18.40;99.90;;;;;;5060061;28;20128;-78
2022/07/13 05:16:10;;;;;;;17.65;16.65;;;18.60;99.90;;;;;;5069093;28;20032;-78
2022/07/13 05:18:37;;;;;;;19.25;17.90;;;18.60;99.90;;;;;;5053814;28;21277;-78
2022/07/13 05:21:10;;;;;;;18.63;17.38;;;18.60;99.90;;;;;;5062011;28;20169;-80
2022/07/13 05:23:37;;;;;;;20.33;18.80;;;18.80;99.90;;;;;;5069300;28;20069;-79
2022/07/13 05:26:06;;;;;;;20.70;19.42;;;18.90;99.90;;;;;;5057581;28;20571;-80
2022/07/13 05:28:36;;;;;;;18.80;17.77;;;19.00;99.90;;;;;;5070489;28;21402;-78
2022/07/13 05:31:04;;;;;;;18.58;17.42;;;19.00;99.90;;;;;;5060232;28;20422;-77
2022/07/13 05:33:32;;;;;;;19.60;18.40;;;19.20;99.90;;;;;;5062608;28;20050;-80
2022/07/13 05:36:07;;;;;;;20.88;19.77;;;19.40;99.90;;;;;;5064094;28;20047;-79
2022/07/13 05:38:34;;;;;;;20.52;19.45;;;19.40;99.90;;;;;;5071644;28;20726;-78
2022/07/13 05:41:02;;;;;;;20.05;19.05;;;19.50;99.90;;;;;;5059813;28;20679;-82
2022/07/13 05:43:29;;;;;;;21.42;20.23;;;19.70;99.90;;;;;;5052372;28;20039;-79
2022/07/13 05:45:56;;;;;;;20.77;19.67;;;19.70;99.90;;;;;;5063244;28;20048;-78
2022/07/13 05:48:23;;;;;;;21.52;19.90;;;19.70;99.90;;;;;;5052224;28;20055;-82
2022/07/13 05:50:51;;;;;;;20.27;19.20;;;19.80;99.90;;;;;;5058481;28;20092;-78
2022/07/13 05:53:38;;;;;;;22.13;20.63;;;19.90;99.90;;;;;;5055454;28;20075;-79
2022/07/13 05:56:05;;;;;;;20.95;19.75;;;20.00;99.90;;;;;;5054913;28;20291;-79
2022/07/13 05:58:32;;;;;;;20.98;19.88;;;20.10;99.90;;;;;;5061567;28;20055;-78
2022/07/13 06:01:00;;;;;;;21.42;20.02;;;20.30;99.90;;;;;;5084518;28;20089;-80
2022/07/13 06:03:27;;;;;;;20.80;19.60;;;20.40;99.90;;;;;;5065900;28;20668;-77
2022/07/13 06:05:54;;;;;;;21.02;19.90;;;20.60;99.90;;;;;;5061775;28;20044;-77
2022/07/13 06:08:21;;;;;;;22.10;20.80;;;20.80;99.90;;;;;;5057974;28;20040;-79
2022/07/13 06:10:47;;;;;;;22.58;20.92;;;20.70;99.90;;;;;;5055945;28;20044;-78
2022/07/13 06:13:14;;;;;;;21.80;20.50;;;20.80;99.90;;;;;;5062465;28;20089;-78
2022/07/13 06:15:41;;;;;;;21.88;20.67;;;21.10;99.90;;;;;;5088443;28;20046;-78
2022/07/13 06:18:08;;;;;;;22.45;21.15;;;21.20;99.90;;;;;;5057910;28;20036;-80
2022/07/13 06:20:35;;;;;;;23.30;21.55;;;21.30;99.90;;;;;;5068596;28;20155;-78
2022/07/13 06:23:11;;;;;;;22.33;21.02;;;21.50;99.90;;;;;;5051673;28;20040;-80
2022/07/13 06:25:38;;;;;;;23.02;21.73;;;21.80;99.90;;;;;;5065207;28;20052;-78
2022/07/13 06:28:05;;;;;;;23.63;22.08;;;21.80;99.90;;;;;;5070690;28;20078;-81
2022/07/13 06:30:35;;;;;;;22.98;21.58;;;21.70;99.90;;;;;;5059083;28;20151;-79
2022/07/13 06:33:03;;;;;;;22.70;21.33;;;21.70;99.90;;;;;;5064535;28;20040;-80
2022/07/13 06:35:31;;;;;;;23.80;22.20;;;21.80;99.90;;;;;;5079249;28;20041;-78
2022/07/13 06:37:58;;;;;;;23.38;21.88;;;21.90;99.90;;;;;;5060602;28;20207;-78
2022/07/13 06:40:25;;;;;;;23.02;21.67;;;21.90;99.90;;;;;;5062967;28;20101;-78
2022/07/13 06:42:52;;;;;;;23.23;21.77;;;22.00;99.90;;;;;;5058228;28;20204;-84
2022/07/13 06:45:21;;;;;;;22.38;20.98;;;22.20;99.90;;;;;;5078770;28;20056;-78
2022/07/13 06:47:49;;;;;;;23.85;22.17;;;22.20;99.90;;;;;;5085859;28;20133;-81
2022/07/13 06:50:16;;;;;;;22.48;21.17;;;22.20;99.90;;;;;;5080598;28;20404;-77
2022/07/13 06:52:45;;;;;;;23.00;21.40;;;22.10;99.90;;;;;;5065713;28;20110;-80
2022/07/13 06:55:13;;;;;;;22.52;21.00;;;21.80;99.90;;;;;;5053612;28;20066;-82
2022/07/13 06:57:40;;;;;;;21.92;20.73;;;21.80;99.90;;;;;;5058414;28;20062;-78
2022/07/13 07:00:08;;;;;;;22.10;20.90;;;22.10;99.90;;;;;;5078661;28;20044;-78
2022/07/13 07:02:38;;;;;;;22.27;20.98;;;22.00;99.90;;;;;;5071519;28;20047;-80
2022/07/13 07:05:09;;;;;;;22.52;21.05;;;22.00;99.90;;;;;;5071546;28;20035;-79
2022/07/13 07:07:37;;;;;;;21.83;20.63;;;22.20;99.90;;;;;;5058716;28;20052;-79
2022/07/13 07:10:05;;;;;;;23.20;21.50;;;22.40;99.90;;;;;;5066051;28;20069;-79
2022/07/13 07:12:32;;;;;;;21.73;20.45;;;22.60;99.90;;;;;;5082562;28;20039;-78
2022/07/13 07:14:59;;;;;;;22.88;21.35;;;22.70;99.90;;;;;;5058753;28;20069;-79
2022/07/13 07:17:25;;;;;;;21.42;20.15;;;22.80;99.90;;;;;;5061969;28;20040;-78
2022/07/13 07:19:58;;;;;;;21.85;20.35;;;22.90;99.90;;;;;;5052297;28;20051;-77
2022/07/13 07:22:25;;;;;;;21.48;20.17;;;23.10;99.90;;;;;;5069673;28;20046;-79
2022/07/13 07:24:52;;;;;;;20.77;19.60;;;23.20;99.90;;;;;;5066868;28;20111;-78
2022/07/13 07:27:25;;;;;;;20.85;19.65;;;23.40;99.90;;;;;;5077397;28;20062;-78
2022/07/13 07:29:53;;;;;;;20.73;19.52;;;23.70;99.90;;;;;;5063475;28;20044;-80
2022/07/13 07:32:19;;;;;;;21.85;20.75;;;24.10;99.90;;;;;;5058076;28;20567;-78
2022/07/13 07:34:47;;;;;;;22.88;21.67;;;24.40;99.90;;;;;;5062189;28;20048;-78
2022/07/13 07:37:14;;;;;;;22.50;21.10;;;24.80;99.90;;;;;;5063135;28;20051;-77
2022/07/13 07:39:40;;;;;;;22.40;21.20;;;24.90;99.90;;;;;;5057440;28;20067;-82
2022/07/13 07:42:07;;;;;;;22.75;21.52;;;25.30;99.90;;;;;;5083673;28;20074;-78
2022/07/13 07:44:34;;;;;;;22.92;21.52;;;25.50;99.90;;;;;;5057731;28;20635;-77
2022/07/13 07:47:01;;;;;;;22.88;21.42;;;25.80;99.90;;;;;;5057789;28;20098;-80
2022/07/13 07:49:28;;;;;;;22.70;21.45;;;26.00;99.90;;;;;;5054966;28;20102;-79
2022/07/13 07:51:55;;;;;;;23.02;21.52;;;26.20;99.90;;;;;;5060533;28;20052;-79
2022/07/13 07:54:41;;;;;;;22.80;21.42;;;26.20;99.90;;;;;;5046603;28;20036;-79
2022/07/13 07:57:08;;;;;;;22.42;21.10;;;26.40;99.90;;;;;;5057776;28;20401;-78
2022/07/13 07:59:35;;;;;;;22.55;21.45;;;26.50;99.90;;;;;;5066073;28;20396;-80
2022/07/13 08:02:02;;;;;;;23.08;21.92;;;26.40;99.90;;;;;;5087988;28;20040;-79
2022/07/13 08:04:29;;;;;;;23.15;21.95;;;26.40;99.90;;;;;;5048024;28;20666;-78
2022/07/13 08:06:56;;;;;;;23.55;22.30;;;26.30;99.90;;;;;;5062826;28;20615;-79
2022/07/13 08:09:22;;;;;;;24.17;22.77;;;26.40;99.90;;;;;;5065944;28;20056;-79
2022/07/13 08:11:49;;;;;;;24.67;23.17;;;26.50;99.90;;;;;;5065750;28;20320;-79
2022/07/13 08:14:16;;;;;;;24.55;23.15;;;26.60;99.90;;;;;;5072507;28;20051;-80
2022/07/13 08:16:43;;;;;;;24.80;23.42;;;26.60;99.90;;;;;;5061925;28;20127;-79
2022/07/13 08:19:10;;;;;;;24.38;23.17;;;26.50;99.90;;;;;;5074600;28;20059;-81
2022/07/13 08:21:57;;;;;;;23.52;22.33;;;26.50;99.90;;;;;;5069058;28;20044;-77
2022/07/13 08:24:24;;;;;;;24.48;23.08;;;26.60;99.90;;;;;;5068864;28;20214;-80
2022/07/13 08:26:52;;;;;;;24.10;22.70;;;26.70;99.90;;;;;;5067953;28;20048;-77
2022/07/13 08:29:19;;;;;;;24.35;23.05;;;26.70;99.90;;;;;;5085199;28;20036;-78
2022/07/13 08:31:46;;;;;;;24.83;23.38;;;26.80;99.90;;;;;;5066056;28;20609;-79
2022/07/13 08:39:44;;;;;;;24.38;22.90;;;26.90;99.90;;;;;;5084430;28;20040;-77
2022/07/13 08:42:13;;;;;;;25.55;23.83;;;27.10;99.90;;;;;;5094064;28;20040;-78
2022/07/13 08:44:40;;;;;;;25.00;23.60;;;27.00;99.90;;;;;;5084933;28;20066;-77
2022/07/13 08:47:10;;;;;;;26.70;25.20;;;27.10;99.90;;;;;;5064968;28;20051;-77
2022/07/13 08:49:37;;;;;;;25.02;23.40;;;27.30;99.90;;;;;;5080800;28;22033;-77
2022/07/13 08:52:04;;;;;;;26.65;25.05;;;27.50;99.90;;;;;;5070070;28;20065;-77
2022/07/13 08:54:32;;;;;;;26.02;24.63;;;27.70;99.90;;;;;;5068631;28;20052;-77
2022/07/13 08:56:59;;;;;;;26.85;25.25;;;27.70;99.90;;;;;;5054264;28;20160;-77
2022/07/13 08:59:26;;;;;;;25.83;24.33;;;27.80;99.90;;;;;;5069787;28;20053;-78
2022/07/13 09:01:52;;;;;;;25.55;24.05;;;27.80;99.90;;;;;;5087475;28;20039;-77
2022/07/13 09:04:20;;;;;;;26.85;25.25;;;27.80;99.90;;;;;;5081127;28;20054;-77
2022/07/13 09:06:50;;;;;;;26.80;25.23;;;27.70;99.90;;;;;;5070335;28;20041;-77
2022/07/13 09:09:31;;;;;;;26.40;25.00;;;27.80;99.90;;;;;;5061084;28;20044;-77
2022/07/13 09:12:22;;;;;;;26.23;24.73;;;28.00;99.90;;;;;;5059667;28;20056;-76
2022/07/13 09:15:00;;;;;;;26.60;25.02;;;27.80;99.90;;;;;;5067385;28;20051;-76
2022/07/13 09:17:37;;;;;;;26.70;25.15;;;27.80;99.90;;;;;;5060804;28;20270;-77
2022/07/13 09:20:10;;;;;;;27.48;25.67;;;27.80;99.90;;;;;;5079402;28;20127;-76
2022/07/13 09:22:57;;;;;;;27.00;25.33;;;28.00;99.90;;;;;;5083074;28;20048;-77
2022/07/13 09:25:32;;;;;;;28.15;26.40;;;28.10;99.90;;;;;;5065513;28;20078;-77
2022/07/13 09:28:04;;;;;;;28.15;26.50;;;28.20;99.90;;;;;;5063480;28;20615;-77
2022/07/13 09:30:32;;;;;;;27.88;25.92;;;28.60;99.90;;;;;;5059427;28;20050;-76
2022/07/13 09:32:59;;;;;;;27.83;25.90;;;28.80;99.90;;;;;;5057708;28;20051;-77
2022/07/13 09:35:47;;;;;;;30.15;27.80;;;29.10;99.90;;;;;;5058218;28;20495;-77
2022/07/13 09:38:28;;;;;;;29.33;27.45;;;29.10;99.70;;;;;;5081002;28;20450;-77
2022/07/13 09:40:55;;;;;;;30.67;28.33;;;29.00;99.60;;;;;;5048628;28;20459;-76
2022/07/13 09:46:11;;;;;;;28.95;27.23;;;29.10;99.90;;;;;;5082863;28;20101;-77
2022/07/13 09:48:38;;;;;;;29.58;27.42;;;29.20;99.30;;;;;;5061892;28;20087;-76
2022/07/13 09:51:06;;;;;;;28.67;26.88;;;29.10;99.90;;;;;;5062076;28;20043;-77
2022/07/13 09:53:34;;;;;;;30.40;28.20;;;29.20;99.80;;;;;;5090348;28;20044;-76
2022/07/13 09:56:03;;;;;;;28.42;26.67;;;29.40;99.90;;;;;;5073794;28;20132;-76
2022/07/13 09:58:36;;;;;;;28.25;26.17;;;29.50;99.80;;;;;;5073946;28;20036;-76
2022/07/13 10:01:03;;;;;;;29.92;27.88;;;29.20;99.50;;;;;;5090630;28;20513;-76
2022/07/13 10:03:31;;;;;;;27.50;25.95;;;29.10;99.50;;;;;;5071566;28;20067;-76
2022/07/13 10:06:01;;;;;;;28.00;26.23;;;29.00;99.50;;;;;;5061581;28;20044;-76
2022/07/13 10:08:28;;;;;;;28.63;26.70;;;29.20;98.70;;;;;;5068684;28;20481;-76
2022/07/13 10:10:55;;;;;;;29.13;27.33;;;29.20;98.60;;;;;;5097063;28;20536;-76
2022/07/13 10:13:23;;;;;;;26.08;24.38;;;29.30;97.80;;;;;;5073376;28;20036;-76
2022/07/13 10:15:50;;;;;;;30.83;28.25;;;29.40;97.60;;;;;;5076092;28;20055;-75
2022/07/13 10:18:22;;;;;;;28.15;26.23;;;29.20;98.80;;;;;;5070945;28;20141;-76
2022/07/13 10:21:01;;;;;;;29.10;27.35;;;29.40;97.50;;;;;;5068485;28;20211;-76
2022/07/13 10:23:35;;;;;;;29.15;27.25;;;29.50;97.50;;;;;;5064817;28;20633;-77
2022/07/13 10:26:20;;;;;;;30.05;27.88;;;29.70;98.00;;;;;;5078338;28;20483;-76
2022/07/13 10:29:04;;;;;;;31.25;29.42;;;29.60;95.80;;;;;;5084711;28;20047;-76
2022/07/13 10:31:42;;;;;;;30.83;28.92;;;29.70;96.80;;;;;;5066435;28;20071;-76
2022/07/13 10:34:11;;;;;;;28.95;27.08;;;29.70;95.70;;;;;;5067932;28;20448;-77
2022/07/13 10:36:57;;;;;;;32.08;29.83;;;30.10;96.30;;;;;;5088552;28;20044;-76
2022/07/13 10:39:26;;;;;;;30.98;28.80;;;30.40;96.90;;;;;;5073413;28;20052;-76
2022/07/13 10:42:13;;;;;;;31.73;29.73;;;30.80;95.30;;;;;;5070027;28;20036;-76
2022/07/13 10:44:43;;;;;;;26.92;25.13;;;30.50;95.20;;;;;;5074641;28;20206;-76
2022/07/13 10:47:12;;;;;;;29.27;27.13;;;30.30;95.40;;;;;;5089487;28;20060;-76
2022/07/13 10:49:46;;;;;;;29.85;28.02;;;30.10;96.20;;;;;;5066320;28;20101;-76
2022/07/13 10:52:19;;;;;;;27.08;25.38;;;30.20;95.70;;;;;;5078726;28;20031;-76
2022/07/13 10:55:03;;;;;;;28.02;26.42;;;30.20;96.20;;;;;;5077076;28;20066;-76
2022/07/13 10:57:31;;;;;;;30.00;28.10;;;30.30;96.10;;;;;;5082047;28;20039;-77
2022/07/13 11:02:49;;;;;;;27.75;25.75;;;29.80;95.70;;;;;;5064058;22;20037;-75
2022/07/13 11:05:19;;;;;;;29.92;28.13;;;29.50;95.30;;;;;;5031922;28;20459;-76
2022/07/13 11:07:48;;;;;;;26.67;24.67;;;29.20;95.30;;;;;;5034645;28;20047;-78
2022/07/13 11:10:30;;;;;;;27.02;25.23;;;29.10;95.50;;;;;;5033455;28;20066;-77
2022/07/13 11:13:09;;;;;;;26.77;25.08;;;29.10;96.60;;;;;;5026818;28;20340;-78
2022/07/13 11:15:55;;;;;;;28.85;27.05;;;29.10;96.60;;;;;;5024509;28;20045;-78
2022/07/13 11:18:25;;;;;;;26.90;25.10;;;29.00;96.70;;;;;;5024497;28;20037;-79
2022/07/13 11:20:58;;;;;;;27.98;26.30;;;28.90;97.00;;;;;;5028444;28;20115;-77
2022/07/13 11:26:41;;;;;;;32.90;30.83;;;28.90;96.70;;;;;;5030222;28;20041;-78
2022/07/13 11:29:13;;;;;;;28.95;26.83;;;29.40;97.40;;;;;;5018603;28;20045;-78
2022/07/13 11:31:40;;;;;;;30.88;28.95;;;29.80;96.00;;;;;;5034797;28;20091;-77
2022/07/13 11:34:07;;;;;;;28.38;26.35;;;30.00;95.30;;;;;;5004939;28;20649;-77
2022/07/13 11:36:40;;;;;;;30.77;28.63;;;29.90;95.30;;;;;;5027969;28;20034;-77
2022/07/13 11:39:24;;;;;;;28.20;26.40;;;29.60;95.30;;;;;;5013571;28;20486;-76
2022/07/13 11:41:51;;;;;;;31.30;28.55;;;29.60;96.40;;;;;;5012967;28;20122;-77
2022/07/13 11:44:24;;;;;;;31.17;29.25;;;29.50;96.20;;;;;;5026494;28;20052;-77
2022/07/13 11:46:53;;;;;;;26.85;24.98;;;29.60;96.50;;;;;;5032173;28;20267;-79
2022/07/13 11:49:21;;;;;;;31.30;29.13;;;29.60;95.40;;;;;;5031401;28;20034;-76
2022/07/13 11:51:49;;;;;;;29.50;27.70;;;29.20;95.40;;;;;;5028545;28;20211;-78
2022/07/13 11:54:18;;;;;;;30.63;28.50;;;28.90;95.30;;;;;;5025375;28;20044;-76
2022/07/13 11:56:50;;;;;;;29.95;27.95;;;29.20;96.10;;;;;;5005632;28;20167;-78
2022/07/13 11:59:42;;;;;;;29.45;27.45;;;29.60;96.30;;;;;;5024716;28;20643;-75
2022/07/13 12:02:11;;;;;;;26.75;25.15;;;30.00;95.60;;;;;;5038776;28;20067;-77
2022/07/13 12:04:43;;;;;;;26.30;24.58;;;30.10;95.10;;;;;;5014832;28;20576;-77
2022/07/13 12:07:24;;;;;;;26.10;24.60;;;29.50;95.40;;;;;;5035851;28;20045;-77
2022/07/13 12:09:51;;;;;;;30.52;28.52;;;29.20;95.40;;;;;;5018092;28;20077;-77
2022/07/13 12:12:20;;;;;;;29.10;27.17;;;29.20;96.30;;;;;;5029962;28;20496;-77
2022/07/13 12:14:48;;;;;;;26.58;24.65;;;29.40;95.70;;;;;;5033521;28;20041;-77
2022/07/13 12:17:15;;;;;;;30.90;28.90;;;29.70;96.50;;;;;;5027016;28;20526;-75
2022/07/13 12:19:42;;;;;;;30.48;28.48;;;29.60;95.90;;;;;;5033743;28;20099;-77
2022/07/13 12:22:09;;;;;;;29.90;27.98;;;29.70;96.20;;;;;;5029082;28;20098;-75
2022/07/13 12:24:42;;;;;;;30.20;28.05;;;29.80;96.80;;;;;;5022059;28;20131;-76
2022/07/13 12:27:08;;;;;;;29.45;27.55;;;30.10;96.40;;;;;;5031423;28;20048;-76
2022/07/13 12:29:35;;;;;;;26.48;24.50;;;30.30;96.50;;;;;;5041993;28;20053;-76
2022/07/13 12:32:03;;;;;;;29.90;28.05;;;30.40;96.20;;;;;;5031415;28;20044;-75
2022/07/13 12:34:30;;;;;;;29.23;27.63;;;30.00;96.50;;;;;;5043828;28;20623;-77
2022/07/13 12:36:56;;;;;;;24.98;23.48;;;30.00;96.70;;;;;;5018434;28;20654;-77
2022/07/13 12:39:36;;;;;;;30.05;28.23;;;30.40;96.80;;;;;;5047034;28;20041;-78
2022/07/13 12:42:03;;;;;;;30.88;28.63;;;29.70;96.60;;;;;;5033689;28;20044;-77
2022/07/13 12:44:31;;;;;;;29.92;27.77;;;29.60;97.00;;;;;;5040276;28;20044;-77
2022/07/13 12:47:00;;;;;;;25.95;24.00;;;29.60;97.30;;;;;;5036643;28;20044;-77
2022/07/13 12:49:38;;;;;;;26.30;24.50;;;29.60;97.00;;;;;;5029167;28;20051;-77
2022/07/13 12:52:06;;;;;;;30.67;28.52;;;29.30;97.60;;;;;;5037434;28;20083;-77